Time;durP1;ratioP1;P1;durP2;ratioP2;P2;SDS_P1;SDS_P2;PMS_P1;PMS_P2;Temp;Humidity;BMP_temperature;BMP_pressure;BME280_temperature;BME280_humidity;BME280_pressure;Samples;Min_cycle;Max_cycle;Signal;HPM_P1;HPM_P2
2023/10/20 00:01:11;;;;;;;0.60;0.28;;;15.70;1.00;;;;;;5083119;28;20062;-92
2023/10/20 00:03:38;;;;;;;0.40;0.40;;;15.70;99.90;;;;;;5116998;28;20440;-92
2023/10/20 00:06:08;;;;;;;0.28;0.28;;;15.60;99.90;;;;;;5084148;28;20104;-93
2023/10/20 00:08:35;;;;;;;0.93;0.50;;;15.60;99.90;;;;;;5100291;28;20066;-93
2023/10/20 00:11:04;;;;;;;1.25;0.50;;;15.70;99.90;;;;;;5114068;28;20469;-93
2023/10/20 00:13:32;;;;;;;0.20;0.20;;;15.60;99.90;;;;;;5096502;28;20048;-92
2023/10/20 00:16:00;;;;;;;0.40;0.30;;;15.70;99.90;;;;;;5080301;28;20043;-91
2023/10/20 00:18:27;;;;;;;0.30;0.30;;;15.60;99.90;;;;;;5112535;28;20065;-91
2023/10/20 00:20:54;;;;;;;0.30;0.20;;;15.70;99.90;;;;;;5113859;28;20043;-88
2023/10/20 00:23:20;;;;;;;0.40;0.30;;;15.70;99.90;;;;;;5102361;28;20260;-86
2023/10/20 00:25:47;;;;;;;0.55;0.22;;;15.70;99.90;;;;;;5103950;28;20051;-83
2023/10/20 00:28:14;;;;;;;0.40;0.30;;;15.70;99.90;;;;;;5082965;28;20047;-80
2023/10/20 00:30:41;;;;;;;0.40;0.20;;;15.60;99.90;;;;;;5085092;28;20048;-81
2023/10/20 00:33:08;;;;;;;1.02;0.50;;;15.60;99.90;;;;;;5101992;28;20099;-79
2023/10/20 00:35:36;;;;;;;0.77;0.40;;;15.60;99.90;;;;;;5085179;28;20054;-79
2023/10/20 00:38:03;;;;;;;0.95;0.30;;;15.50;99.90;;;;;;5101164;28;20044;-83
2023/10/20 00:40:31;;;;;;;0.50;0.38;;;15.50;99.90;;;;;;5100738;28;20040;-85
2023/10/20 00:42:57;;;;;;;0.32;0.20;;;15.50;99.90;;;;;;5101549;28;20277;-86
2023/10/20 00:45:24;;;;;;;0.47;0.20;;;15.50;99.90;;;;;;5104071;28;20548;-86
2023/10/20 00:47:51;;;;;;;0.65;0.30;;;15.50;99.90;;;;;;5104169;28;20116;-86
2023/10/20 00:50:18;;;;;;;0.10;0.10;;;15.50;99.90;;;;;;5104818;28;20096;-86
2023/10/20 00:52:49;;;;;;;0.20;0.20;;;15.40;99.90;;;;;;5103746;28;20050;-86
2023/10/20 00:55:16;;;;;;;0.75;0.35;;;15.40;99.90;;;;;;5085008;28;20135;-86
2023/10/20 00:57:43;;;;;;;0.38;0.38;;;15.40;99.90;;;;;;5078809;28;20060;-85
2023/10/20 01:00:11;;;;;;;0.20;0.20;;;15.40;99.90;;;;;;5083226;28;20389;-87
2023/10/20 01:02:38;;;;;;;0.22;0.20;;;15.40;99.90;;;;;;5098968;28;20070;-86
2023/10/20 01:05:05;;;;;;;0.52;0.40;;;15.40;99.90;;;;;;5090249;28;20069;-86
2023/10/20 01:07:33;;;;;;;0.20;0.20;;;15.40;1.00;;;;;;5102221;28;20131;-86
2023/10/20 01:10:07;;;;;;;0.20;0.20;;;15.40;1.00;;;;;;5105619;28;20044;-84
2023/10/20 01:12:34;;;;;;;0.52;0.43;;;15.40;1.00;;;;;;5090192;28;20443;-86
2023/10/20 01:15:04;;;;;;;0.40;0.40;;;15.40;1.00;;;;;;5096248;28;20081;-85
2023/10/20 01:17:32;;;;;;;0.73;0.50;;;15.40;1.00;;;;;;5114283;28;20044;-85
2023/10/20 01:20:04;;;;;;;0.30;0.30;;;15.40;1.00;;;;;;5107888;28;20391;-84
2023/10/20 01:22:31;;;;;;;0.43;0.30;;;15.40;1.00;;;;;;5104126;28;20446;-82
2023/10/20 01:24:58;;;;;;;0.73;0.40;;;15.40;1.00;;;;;;5102109;28;20071;-84
2023/10/20 01:27:25;;;;;;;0.63;0.30;;;15.40;1.00;;;;;;5067372;28;20449;-85
2023/10/20 01:29:51;;;;;;;0.20;0.20;;;15.40;1.00;;;;;;5105580;28;20421;-85
2023/10/20 01:32:20;;;;;;;0.28;0.28;;;15.40;1.00;;;;;;5108162;28;20477;-87
2023/10/20 01:34:47;;;;;;;0.25;0.25;;;15.50;1.00;;;;;;5094364;28;20072;-86
2023/10/20 01:37:14;;;;;;;0.20;0.20;;;15.50;1.00;;;;;;5095206;28;20040;-84
2023/10/20 01:39:41;;;;;;;0.50;0.35;;;15.50;1.00;;;;;;5087052;28;20116;-86
2023/10/20 01:42:10;;;;;;;0.30;0.30;;;15.50;1.00;;;;;;5099586;28;20055;-85
2023/10/20 01:44:37;;;;;;;0.20;0.20;;;15.50;1.00;;;;;;5074836;28;20086;-87
2023/10/20 01:47:05;;;;;;;0.40;0.30;;;15.50;1.00;;;;;;5087081;28;20125;-88
2023/10/20 01:49:37;;;;;;;0.30;0.30;;;15.50;1.00;;;;;;5093053;28;20052;-90
2023/10/20 01:52:04;;;;;;;0.28;0.28;;;15.50;1.00;;;;;;5095792;28;20081;-91
2023/10/20 01:54:30;;;;;;;0.13;0.13;;;15.60;1.00;;;;;;5106938;28;20100;-94
2023/10/20 01:57:00;;;;;;;0.20;0.20;;;15.60;1.00;;;;;;5097807;28;20048;-93
2023/10/20 01:59:26;;;;;;;0.20;0.20;;;15.60;1.00;;;;;;5098220;28;20385;-93
2023/10/20 02:02:00;;;;;;;0.20;0.20;;;15.60;1.00;;;;;;5099154;28;20048;-89
2023/10/20 02:04:29;;;;;;;0.30;0.30;;;15.60;1.00;;;;;;5114947;28;20089;-88
2023/10/20 02:06:55;;;;;;;0.28;0.28;;;15.60;1.00;;;;;;5112642;28;20101;-87
2023/10/20 02:09:25;;;;;;;0.10;0.10;;;15.60;1.00;;;;;;5110456;28;20507;-83
2023/10/20 02:11:56;;;;;;;0.10;0.10;;;15.60;1.00;;;;;;5093094;28;20481;-82
2023/10/20 02:14:24;;;;;;;0.30;0.30;;;15.70;1.00;;;;;;5092470;28;20047;-84
2023/10/20 02:16:51;;;;;;;0.50;0.50;;;15.70;1.00;;;;;;5092373;28;20093;-80
2023/10/20 02:19:18;;;;;;;0.30;0.30;;;15.70;1.00;;;;;;5072211;28;20139;-83
2023/10/20 02:21:47;;;;;;;0.50;0.40;;;15.70;1.00;;;;;;5078486;28;20063;-81
2023/10/20 02:24:14;;;;;;;0.55;0.50;;;15.70;1.00;;;;;;5109617;28;20044;-79
2023/10/20 02:26:41;;;;;;;0.50;0.50;;;15.70;1.00;;;;;;5101382;28;20670;-83
2023/10/20 02:29:08;;;;;;;0.40;0.40;;;15.70;1.00;;;;;;5113105;28;20051;-84
2023/10/20 02:31:35;;;;;;;0.50;0.50;;;15.70;1.00;;;;;;5099136;28;20142;-84
2023/10/20 02:34:01;;;;;;;0.57;0.57;;;15.80;1.00;;;;;;5114891;28;20051;-85
2023/10/20 02:36:28;;;;;;;0.40;0.40;;;15.70;1.00;;;;;;5111304;28;20040;-86
2023/10/20 02:38:57;;;;;;;0.90;0.75;;;15.70;1.00;;;;;;5097505;28;20051;-87
2023/10/20 02:41:24;;;;;;;1.00;0.90;;;15.70;1.00;;;;;;5116102;28;20089;-87
2023/10/20 02:43:53;;;;;;;0.63;0.60;;;15.70;1.00;;;;;;5117390;28;20122;-87
2023/10/20 02:46:20;;;;;;;1.00;0.90;;;15.70;1.00;;;;;;5100040;28;20044;-88
2023/10/20 02:48:47;;;;;;;2.35;1.25;;;15.70;1.00;;;;;;5118796;28;20047;-86
2023/10/20 02:51:17;;;;;;;1.63;1.20;;;15.70;1.00;;;;;;5115972;28;20457;-88
2023/10/20 02:53:59;;;;;;;1.17;0.98;;;15.70;1.00;;;;;;5103216;28;20043;-90
2023/10/20 02:56:32;;;;;;;1.35;1.00;;;15.70;3.10;;;;;;5107469;28;20116;-91
2023/10/20 02:59:01;;;;;;;1.00;0.90;;;15.70;1.00;;;;;;5096530;28;20052;-92
2023/10/20 03:01:34;;;;;;;0.98;0.70;;;15.70;1.00;;;;;;5095944;27;20543;-92
2023/10/20 03:04:02;;;;;;;0.30;0.30;;;15.60;1.00;;;;;;5105268;28;20052;-94
2023/10/20 03:06:33;;;;;;;0.30;0.30;;;15.50;1.00;;;;;;5115575;28;20051;-92
2023/10/20 03:09:00;;;;;;;0.20;0.20;;;15.50;1.00;;;;;;5114993;28;20056;-93
2023/10/20 03:11:28;;;;;;;0.30;0.30;;;15.50;1.00;;;;;;5115855;28;20125;-94
2023/10/20 03:13:55;;;;;;;0.38;0.38;;;15.40;1.00;;;;;;5116185;28;20154;-91
2023/10/20 03:16:23;;;;;;;0.20;0.20;;;15.40;1.00;;;;;;5116489;28;20047;-92
2023/10/20 03:18:53;;;;;;;0.20;0.20;;;15.40;1.00;;;;;;5115794;28;20556;-90
2023/10/20 03:21:21;;;;;;;0.13;0.13;;;15.40;1.00;;;;;;5098911;28;20060;-90
2023/10/20 03:23:53;;;;;;;0.22;0.22;;;15.40;1.00;;;;;;5113129;28;20047;-91
2023/10/20 03:26:22;;;;;;;0.10;0.10;;;15.40;1.00;;;;;;5115896;28;20495;-91
2023/10/20 03:28:51;;;;;;;0.20;0.20;;;15.40;1.00;;;;;;5098981;28;20342;-92
2023/10/20 03:31:26;;;;;;;0.10;0.10;;;15.40;1.00;;;;;;5117145;28;20108;-92
2023/10/20 03:33:56;;;;;;;0.00;0.00;;;15.40;1.00;;;;;;5095529;28;20051;-93
2023/10/20 03:36:30;;;;;;;0.00;0.00;;;15.40;1.00;;;;;;5096400;28;20044;-93
2023/10/20 03:39:14;;;;;;;0.08;0.08;;;15.30;1.00;;;;;;5097094;28;20059;-93
2023/10/20 03:41:45;;;;;;;0.22;0.10;;;15.30;1.00;;;;;;5110058;28;20052;-93
2023/10/20 03:44:14;;;;;;;0.08;0.08;;;15.20;1.00;;;;;;5120923;28;20051;-95
2023/10/20 03:46:49;;;;;;;0.15;0.15;;;15.10;1.00;;;;;;5118443;28;20100;-93
2023/10/20 03:49:18;;;;;;;0.10;0.10;;;15.10;1.00;;;;;;5117536;28;20059;-91
2023/10/20 03:51:58;;;;;;;0.10;0.10;;;15.10;1.00;;;;;;5098601;28;20610;-92
2023/10/20 03:54:29;;;;;;;0.22;0.13;;;15.00;1.00;;;;;;5114494;28;20055;-92
2023/10/20 03:57:06;;;;;;;0.10;0.10;;;14.90;1.00;;;;;;5089616;28;20052;-91
2023/10/20 03:59:38;;;;;;;0.95;0.20;;;14.90;99.90;;;;;;5078761;28;20074;-91
2023/10/20 04:02:08;;;;;;;0.10;0.10;;;14.90;99.90;;;;;;5113056;28;20147;-92
2023/10/20 04:04:37;;;;;;;0.10;0.10;;;14.90;99.90;;;;;;5115839;27;20059;-90
2023/10/20 04:07:09;;;;;;;0.10;0.10;;;14.80;99.90;;;;;;5097527;28;20507;-91
2023/10/20 04:09:38;;;;;;;0.20;0.20;;;14.80;99.90;;;;;;5098116;28;20451;-90
2023/10/20 04:12:07;;;;;;;0.10;0.10;;;14.80;99.90;;;;;;5081791;28;20082;-92
2023/10/20 04:14:34;;;;;;;0.10;0.10;;;14.80;99.90;;;;;;5078313;28;20059;-92
2023/10/20 04:17:03;;;;;;;0.10;0.10;;;14.70;99.90;;;;;;5077905;28;20114;-92
2023/10/20 04:19:58;;;;;;;0.10;0.10;;;14.70;99.90;;;;;;5061686;28;20048;-92
2023/10/20 04:22:31;;;;;;;0.10;0.10;;;14.70;99.90;;;;;;5114546;28;20047;-91
2023/10/20 04:24:59;;;;;;;0.10;0.10;;;14.70;99.90;;;;;;5098035;28;20072;-90
2023/10/20 04:27:45;;;;;;;0.30;0.28;;;14.60;99.90;;;;;;5102859;28;20294;-90
2023/10/20 05:07:56;;;;;;;0.20;0.20;;;14.70;1.00;;;;;;5095417;28;20043;-93
2023/10/20 05:10:24;;;;;;;0.38;0.38;;;14.70;1.00;;;;;;5111112;28;20063;-92
2023/10/20 05:12:51;;;;;;;0.82;0.60;;;14.70;1.00;;;;;;5077404;28;20093;-92
2023/10/20 05:15:18;;;;;;;1.85;0.65;;;14.70;1.00;;;;;;5076459;28;20056;-93
2023/10/20 05:17:52;;;;;;;1.67;0.60;;;14.70;1.00;;;;;;5107772;28;20512;-92
2023/10/20 05:20:23;;;;;;;0.85;0.60;;;14.70;1.00;;;;;;5109152;28;20071;-92
2023/10/20 05:22:49;;;;;;;0.45;0.45;;;14.70;1.00;;;;;;5093689;28;20395;-92
2023/10/20 05:25:17;;;;;;;0.40;0.30;;;14.70;1.00;;;;;;5077197;28;20055;-92
2023/10/20 05:27:45;;;;;;;0.45;0.40;;;14.70;1.00;;;;;;5094351;28;20120;-92
2023/10/20 05:30:13;;;;;;;0.20;0.20;;;14.70;1.00;;;;;;5099964;28;20051;-89
2023/10/20 05:32:41;;;;;;;0.28;0.28;;;14.70;1.00;;;;;;5093153;28;20398;-89
2023/10/20 05:35:09;;;;;;;0.35;0.35;;;14.80;1.00;;;;;;5102214;28;20051;-91
2023/10/20 05:37:36;;;;;;;0.30;0.30;;;14.70;1.00;;;;;;5107409;28;20044;-91
2023/10/20 05:40:03;;;;;;;0.20;0.20;;;14.70;1.00;;;;;;5110458;28;20048;-92
2023/10/20 05:42:31;;;;;;;0.10;0.10;;;14.70;1.00;;;;;;5117211;28;20120;-92
2023/10/20 05:45:09;;;;;;;0.20;0.20;;;14.70;99.90;;;;;;5109445;28;20416;-83
2023/10/20 05:47:37;;;;;;;0.10;0.10;;;14.70;1.00;;;;;;5109236;28;20063;-84
2023/10/20 05:50:05;;;;;;;0.10;0.10;;;14.70;99.90;;;;;;5091984;28;20116;-83
2023/10/20 05:52:33;;;;;;;0.20;0.10;;;14.60;99.90;;;;;;5103831;27;20043;-81
2023/10/20 05:55:02;;;;;;;0.10;0.10;;;14.60;99.90;;;;;;5107368;28;20043;-84
2023/10/20 05:57:29;;;;;;;0.22;0.22;;;14.60;99.90;;;;;;5107615;28;20130;-84
2023/10/20 05:59:59;;;;;;;0.10;0.10;;;14.60;99.90;;;;;;5106344;27;20050;-84
2023/10/20 06:02:27;;;;;;;0.50;0.20;;;14.60;99.90;;;;;;5089079;28;20055;-84
2023/10/20 06:04:54;;;;;;;0.13;0.13;;;14.60;99.90;;;;;;5105238;28;20047;-86
2023/10/20 06:07:22;;;;;;;0.17;0.17;;;14.60;99.90;;;;;;5107972;28;20784;-84
2023/10/20 06:09:49;;;;;;;0.20;0.20;;;14.60;99.90;;;;;;5105949;28;20043;-84
2023/10/20 06:12:16;;;;;;;0.20;0.20;;;14.50;99.90;;;;;;5103410;28;20092;-84
2023/10/20 06:14:43;;;;;;;0.10;0.10;;;14.50;99.90;;;;;;5101563;28;20229;-85
2023/10/20 06:17:10;;;;;;;0.10;0.10;;;14.50;99.90;;;;;;5107013;28;20058;-86
2023/10/20 06:19:37;;;;;;;0.10;0.10;;;14.50;99.90;;;;;;5091896;28;20051;-86
2023/10/20 06:22:05;;;;;;;0.10;0.10;;;14.50;99.90;;;;;;5104802;28;20124;-85
2023/10/20 06:24:33;;;;;;;0.20;0.20;;;14.50;99.90;;;;;;5119089;27;20401;-84
2023/10/20 06:27:04;;;;;;;0.40;0.15;;;14.40;99.90;;;;;;5088210;28;20237;-85
2023/10/20 06:32:23;;;;;;;0.25;0.25;;;14.50;99.90;;;;;;5087511;28;20386;-84
2023/10/20 06:34:52;;;;;;;0.20;0.20;;;14.50;99.90;;;;;;5090768;28;20143;-85
2023/10/20 06:37:28;;;;;;;0.10;0.10;;;14.50;99.90;;;;;;5065916;28;20048;-85
2023/10/20 06:39:56;;;;;;;0.10;0.10;;;14.50;99.90;;;;;;5094316;28;20432;-85
2023/10/20 06:42:24;;;;;;;0.90;0.10;;;14.50;99.90;;;;;;5089135;28;20161;-86
2023/10/20 06:44:51;;;;;;;0.10;0.10;;;14.50;99.90;;;;;;5106233;28;20054;-85
2023/10/20 06:47:19;;;;;;;0.13;0.13;;;14.40;99.90;;;;;;5083252;28;20104;-83
2023/10/20 06:49:46;;;;;;;0.10;0.10;;;14.50;99.90;;;;;;5078460;28;20052;-84
2023/10/20 06:52:17;;;;;;;0.10;0.10;;;14.40;99.90;;;;;;5103830;28;20066;-85
2023/10/20 06:54:48;;;;;;;0.10;0.10;;;14.40;99.90;;;;;;5071965;28;20062;-85
2023/10/20 06:57:36;;;;;;;0.17;0.17;;;14.40;99.90;;;;;;5104798;28;20043;-85
2023/10/20 07:00:06;;;;;;;0.20;0.20;;;14.40;99.90;;;;;;5105507;28;20063;-84
2023/10/20 07:02:33;;;;;;;0.10;0.10;;;14.30;99.90;;;;;;5106128;28;20075;-84
2023/10/20 07:05:01;;;;;;;0.20;0.20;;;14.30;99.90;;;;;;5084575;28;20058;-84
2023/10/20 07:07:27;;;;;;;0.28;0.20;;;14.30;99.90;;;;;;5084243;28;20395;-84
2023/10/20 07:09:54;;;;;;;0.43;0.32;;;14.30;99.90;;;;;;5083708;28;20521;-84
2023/10/20 07:12:22;;;;;;;0.20;0.20;;;14.30;99.90;;;;;;5101854;28;20055;-86
2023/10/20 07:14:49;;;;;;;0.20;0.20;;;14.30;99.90;;;;;;5106300;28;20545;-87
2023/10/20 07:17:16;;;;;;;0.10;0.10;;;14.30;99.90;;;;;;5087110;28;20154;-86
2023/10/20 07:19:43;;;;;;;0.30;0.30;;;14.30;99.90;;;;;;5086884;28;20382;-87
2023/10/20 07:22:10;;;;;;;0.15;0.10;;;14.30;99.90;;;;;;5089370;28;20048;-85
2023/10/20 07:24:39;;;;;;;0.10;0.10;;;14.40;99.90;;;;;;5088830;28;20130;-85
2023/10/20 07:27:06;;;;;;;0.25;0.20;;;14.40;99.90;;;;;;5070931;28;20051;-87
2023/10/20 07:29:33;;;;;;;0.10;0.10;;;14.40;99.90;;;;;;5081275;28;20071;-86
2023/10/20 07:32:04;;;;;;;0.55;0.22;;;14.40;99.90;;;;;;5088097;28;20186;-85
2023/10/20 07:34:33;;;;;;;0.10;0.10;;;14.40;99.90;;;;;;5099381;28;20039;-85
2023/10/20 07:37:00;;;;;;;0.10;0.10;;;14.40;99.90;;;;;;5104971;28;20060;-86
2023/10/20 07:39:26;;;;;;;0.10;0.10;;;14.50;99.90;;;;;;5106047;28;20093;-86
2023/10/20 07:41:53;;;;;;;0.10;0.10;;;14.50;99.90;;;;;;5089271;28;20056;-85
2023/10/20 07:44:20;;;;;;;0.10;0.10;;;14.50;99.90;;;;;;5105558;28;20093;-86
2023/10/20 07:46:47;;;;;;;0.10;0.10;;;14.50;99.90;;;;;;5106246;28;20146;-85
2023/10/20 07:49:14;;;;;;;0.10;0.10;;;14.50;99.90;;;;;;5107270;28;20577;-86
2023/10/20 07:51:41;;;;;;;0.00;0.00;;;14.60;99.90;;;;;;5105462;28;20044;-86
2023/10/20 07:54:11;;;;;;;0.10;0.10;;;14.60;99.90;;;;;;5068323;28;20056;-86
2023/10/20 07:56:38;;;;;;;0.10;0.10;;;14.60;99.90;;;;;;5085703;28;20055;-86
2023/10/20 07:59:07;;;;;;;0.10;0.10;;;14.70;99.90;;;;;;5079478;28;20530;-86
2023/10/20 08:01:34;;;;;;;0.10;0.10;;;14.70;99.90;;;;;;5094621;28;20119;-88
2023/10/20 08:04:02;;;;;;;0.05;0.05;;;14.80;99.90;;;;;;5095654;28;20044;-85
2023/10/20 08:06:29;;;;;;;0.10;0.10;;;14.80;99.90;;;;;;5106475;28;20143;-88
2023/10/20 08:08:57;;;;;;;0.00;0.00;;;14.90;99.90;;;;;;5106612;28;20043;-86
2023/10/20 08:11:24;;;;;;;0.10;0.10;;;14.90;69.90;;;;;;5089625;28;20097;-86
2023/10/20 08:13:51;;;;;;;0.10;0.10;;;14.90;77.00;;;;;;5087522;28;20474;-85
2023/10/20 08:16:19;;;;;;;0.13;0.13;;;14.90;62.20;;;;;;5088151;28;20051;-86
2023/10/20 08:18:46;;;;;;;0.10;0.10;;;15.00;34.10;;;;;;5071116;28;20055;-87
2023/10/20 08:21:15;;;;;;;0.10;0.10;;;14.90;1.00;;;;;;5106019;28;20055;-86
2023/10/20 08:23:43;;;;;;;0.10;0.10;;;14.90;1.00;;;;;;5097977;28;20335;-85
2023/10/20 08:26:16;;;;;;;0.10;0.10;;;14.80;1.00;;;;;;5082370;28;20052;-86
2023/10/20 08:28:43;;;;;;;0.10;0.10;;;14.80;1.00;;;;;;5074404;28;20051;-86
2023/10/20 08:31:14;;;;;;;0.10;0.10;;;14.80;1.00;;;;;;5081056;28;20289;-86
2023/10/20 08:33:41;;;;;;;0.10;0.10;;;14.80;1.00;;;;;;5097083;28;20048;-84
2023/10/20 08:36:15;;;;;;;0.10;0.10;;;14.70;1.00;;;;;;5082758;28;20044;-86
2023/10/20 08:38:43;;;;;;;0.25;0.20;;;14.70;1.00;;;;;;5069511;28;20063;-84
2023/10/20 08:41:33;;;;;;;0.20;0.20;;;14.80;1.00;;;;;;5095195;28;20065;-84
2023/10/20 08:44:01;;;;;;;0.10;0.10;;;14.80;1.00;;;;;;5083072;28;20407;-84
2023/10/20 08:46:28;;;;;;;0.10;0.10;;;14.80;1.00;;;;;;5088354;28;20446;-85
2023/10/20 08:48:55;;;;;;;0.20;0.20;;;14.80;1.00;;;;;;5080058;28;20043;-85
2023/10/20 08:51:22;;;;;;;0.20;0.20;;;14.80;1.00;;;;;;5084049;28;20055;-86
2023/10/20 08:53:49;;;;;;;0.20;0.20;;;14.80;1.00;;;;;;5091430;28;20819;-84
2023/10/20 08:56:16;;;;;;;0.20;0.20;;;14.80;99.90;;;;;;5094592;28;20781;-81
2023/10/20 08:58:46;;;;;;;0.20;0.20;;;14.80;99.90;;;;;;5082989;28;20433;-81
2023/10/20 09:01:14;;;;;;;0.25;0.25;;;14.80;1.00;;;;;;5073882;28;20131;-83
2023/10/20 09:03:48;;;;;;;0.10;0.10;;;14.80;1.00;;;;;;5097376;28;20074;-80
2023/10/20 09:06:15;;;;;;;0.15;0.15;;;14.90;1.00;;;;;;5083297;28;20392;-78
2023/10/20 09:08:49;;;;;;;0.20;0.10;;;14.90;1.00;;;;;;5080853;28;20389;-78
2023/10/20 09:11:33;;;;;;;0.20;0.20;;;14.90;1.00;;;;;;5087668;28;20043;-78
2023/10/20 09:14:01;;;;;;;0.30;0.30;;;14.90;1.00;;;;;;5086973;28;20059;-77
2023/10/20 09:16:27;;;;;;;0.20;0.20;;;15.00;1.00;;;;;;5095954;28;20058;-78
2023/10/20 09:18:55;;;;;;;0.25;0.25;;;14.90;1.00;;;;;;5089848;28;20430;-78
2023/10/20 09:21:26;;;;;;;0.38;0.30;;;14.90;1.00;;;;;;5071708;28;20592;-77
2023/10/20 09:24:19;;;;;;;0.40;0.40;;;14.90;29.90;;;;;;5079315;28;20043;-78
2023/10/20 09:26:46;;;;;;;0.30;0.30;;;14.90;1.00;;;;;;5080297;28;20173;-91
2023/10/20 09:29:13;;;;;;;0.35;0.35;;;14.90;11.00;;;;;;5093879;28;20096;-91
2023/10/20 09:31:40;;;;;;;0.30;0.30;;;14.90;99.90;;;;;;5092762;28;20058;-91
2023/10/20 09:34:09;;;;;;;0.20;0.20;;;14.90;99.90;;;;;;5102863;28;20048;-93
2023/10/20 09:36:36;;;;;;;0.35;0.35;;;14.90;98.20;;;;;;5097876;28;20071;-92
2023/10/20 09:39:05;;;;;;;0.32;0.32;;;14.90;99.90;;;;;;5103470;28;20771;-89
2023/10/20 09:41:32;;;;;;;0.40;0.40;;;14.90;99.90;;;;;;5064635;28;20051;-93
2023/10/20 09:44:08;;;;;;;0.30;0.30;;;14.90;99.80;;;;;;5095490;28;20046;-91
2023/10/20 09:46:45;;;;;;;0.40;0.40;;;14.90;77.70;;;;;;5107320;28;20400;-92
2023/10/20 09:49:26;;;;;;;0.43;0.43;;;15.00;10.60;;;;;;5097867;28;20058;-93
2023/10/20 09:51:56;;;;;;;0.32;0.32;;;14.90;1.00;;;;;;5095616;28;20055;-92
2023/10/20 09:54:30;;;;;;;0.30;0.30;;;14.90;1.00;;;;;;5110186;28;20151;-94
2023/10/20 09:56:58;;;;;;;0.35;0.35;;;15.00;17.10;;;;;;5089496;28;20056;-92
2023/10/20 09:59:27;;;;;;;0.20;0.20;;;15.00;60.60;;;;;;5090881;28;20073;-94
2023/10/20 10:01:55;;;;;;;0.30;0.30;;;15.00;99.90;;;;;;5086648;28;20047;-88
2023/10/20 10:04:33;;;;;;;0.40;0.30;;;15.10;99.90;;;;;;5101329;28;20527;-93
2023/10/20 10:07:03;;;;;;;0.30;0.30;;;15.10;90.00;;;;;;5067967;28;20737;-90
2023/10/20 10:09:38;;;;;;;0.20;0.20;;;15.10;27.50;;;;;;5084128;28;20052;-91
2023/10/20 10:12:10;;;;;;;0.20;0.20;;;15.20;47.00;;;;;;5073222;28;20048;-92
2023/10/20 10:14:38;;;;;;;0.15;0.15;;;15.20;4.30;;;;;;5081044;28;20059;-93
2023/10/20 10:17:12;;;;;;;0.22;0.22;;;15.20;1.00;;;;;;5074204;28;20055;-91
2023/10/20 10:19:52;;;;;;;0.20;0.20;;;15.20;1.00;;;;;;5110461;28;20052;-92
2023/10/20 10:22:29;;;;;;;0.15;0.15;;;15.20;1.00;;;;;;5074501;28;20462;-94
2023/10/20 10:24:57;;;;;;;0.20;0.20;;;15.20;1.00;;;;;;5080829;28;20052;-92
2023/10/20 10:27:29;;;;;;;0.28;0.28;;;15.20;1.00;;;;;;5078169;28;20080;-94
2023/10/20 10:32:31;;;;;;;0.13;0.13;;;15.30;99.90;;;;;;5092153;28;20070;-93
2023/10/20 10:34:58;;;;;;;0.20;0.20;;;15.30;99.90;;;;;;5099948;28;20253;-92
2023/10/20 10:37:33;;;;;;;0.20;0.20;;;15.30;99.90;;;;;;5080847;28;20445;-93
2023/10/20 10:40:10;;;;;;;0.25;0.20;;;15.30;99.90;;;;;;5090800;28;20054;-93
2023/10/20 10:42:47;;;;;;;0.20;0.20;;;15.30;99.90;;;;;;5105847;28;20086;-92
2023/10/20 10:45:35;;;;;;;0.20;0.20;;;15.30;99.90;;;;;;5119180;28;20063;-93
2023/10/20 10:48:07;;;;;;;0.20;0.20;;;15.40;99.90;;;;;;5116116;28;20036;-93
2023/10/20 10:50:40;;;;;;;0.15;0.15;;;15.40;82.00;;;;;;5104609;28;20067;-92
2023/10/20 10:53:07;;;;;;;0.10;0.10;;;15.50;21.80;;;;;;5119517;28;20103;-93
2023/10/20 10:55:37;;;;;;;0.17;0.17;;;15.60;52.40;;;;;;5102649;28;20055;-93
2023/10/20 10:58:08;;;;;;;0.10;0.10;;;15.60;1.00;;;;;;5103634;28;20511;-93
2023/10/20 11:00:35;;;;;;;0.20;0.20;;;15.70;1.00;;;;;;5111168;28;20063;-92
2023/10/20 11:03:03;;;;;;;0.28;0.17;;;15.70;1.00;;;;;;5095478;28;20051;-94
2023/10/20 11:05:34;;;;;;;0.20;0.13;;;15.70;99.90;;;;;;5112965;28;20397;-90
2023/10/20 11:08:07;;;;;;;0.20;0.20;;;15.80;1.00;;;;;;5091524;28;20085;-93
2023/10/20 11:10:36;;;;;;;0.30;0.20;;;15.90;99.90;;;;;;5105921;28;20052;-94
2023/10/20 11:13:10;;;;;;;0.10;0.10;;;15.90;99.90;;;;;;5108548;28;20050;-92
2023/10/20 11:15:37;;;;;;;0.20;0.20;;;15.90;99.90;;;;;;5096891;28;20048;-92
2023/10/20 11:18:05;;;;;;;0.38;0.28;;;15.90;99.90;;;;;;5100858;28;20062;-92
2023/10/20 11:20:41;;;;;;;0.65;0.40;;;15.80;99.90;;;;;;5090292;28;20490;-92
2023/10/20 11:23:08;;;;;;;0.68;0.50;;;15.70;99.90;;;;;;5076613;28;20040;-86
2023/10/20 11:25:36;;;;;;;0.60;0.50;;;15.70;30.00;;;;;;5069811;28;20553;-88
2023/10/20 11:28:07;;;;;;;0.45;0.40;;;15.60;1.00;;;;;;5076346;28;20139;-90
2023/10/20 11:30:38;;;;;;;0.28;0.28;;;15.60;64.60;;;;;;5073445;28;20051;-89
2023/10/20 11:33:09;;;;;;;0.45;0.30;;;15.60;99.90;;;;;;5087679;28;20080;-89
2023/10/20 11:35:42;;;;;;;0.30;0.30;;;15.50;99.90;;;;;;5095895;28;20324;-90
2023/10/20 11:38:09;;;;;;;0.32;0.30;;;15.50;99.90;;;;;;5111029;28;20087;-89
2023/10/20 11:40:36;;;;;;;0.40;0.30;;;15.50;99.90;;;;;;5113675;28;20187;-88
2023/10/20 11:43:04;;;;;;;0.35;0.35;;;15.50;1.00;;;;;;5078848;28;20051;-87
2023/10/20 11:45:31;;;;;;;0.40;0.40;;;15.50;99.90;;;;;;5122253;28;20081;-87
2023/10/20 11:47:58;;;;;;;0.30;0.20;;;15.50;99.90;;;;;;5119961;28;20043;-89
2023/10/20 11:50:25;;;;;;;0.20;0.20;;;15.50;99.90;;;;;;5112887;28;20052;-88
2023/10/20 11:52:52;;;;;;;0.15;0.15;;;15.60;99.90;;;;;;5091850;28;20523;-89
2023/10/20 11:55:19;;;;;;;0.10;0.10;;;15.70;99.90;;;;;;5095008;28;20055;-90
2023/10/20 11:57:46;;;;;;;0.32;0.30;;;15.80;99.90;;;;;;5095226;28;20058;-86
2023/10/20 12:00:15;;;;;;;0.15;0.10;;;15.90;99.90;;;;;;5113542;28;20486;-88
2023/10/20 12:02:41;;;;;;;0.13;0.13;;;15.90;99.90;;;;;;5114209;28;20044;-89
2023/10/20 12:05:10;;;;;;;0.22;0.22;;;15.90;99.90;;;;;;5095303;28;20051;-90
2023/10/20 12:07:37;;;;;;;0.15;0.10;;;15.90;99.90;;;;;;5093983;28;20051;-88
2023/10/20 12:10:05;;;;;;;0.10;0.10;;;15.90;99.90;;;;;;5111578;28;20043;-88
2023/10/20 12:12:33;;;;;;;0.20;0.20;;;16.00;99.90;;;;;;5113221;28;20458;-91
2023/10/20 12:15:00;;;;;;;0.30;0.30;;;16.00;99.90;;;;;;5096001;28;20051;-89
2023/10/20 12:17:27;;;;;;;0.17;0.17;;;16.10;99.90;;;;;;5094866;28;20156;-90
2023/10/20 12:19:54;;;;;;;0.10;0.10;;;16.10;87.00;;;;;;5111562;28;20051;-90
2023/10/20 12:22:23;;;;;;;0.22;0.20;;;16.10;1.00;;;;;;5094286;28;20105;-88
2023/10/20 12:24:50;;;;;;;0.10;0.10;;;16.10;99.90;;;;;;5090510;28;20044;-88
2023/10/20 12:27:17;;;;;;;0.30;0.20;;;16.00;99.90;;;;;;5072163;28;20101;-90
2023/10/20 12:29:44;;;;;;;0.22;0.20;;;16.00;1.00;;;;;;5090428;28;20330;-89
2023/10/20 12:32:12;;;;;;;0.30;0.30;;;16.00;99.90;;;;;;5097995;28;20119;-89
2023/10/20 12:34:40;;;;;;;0.17;0.17;;;16.10;99.90;;;;;;5114271;28;20066;-88
2023/10/20 12:37:07;;;;;;;0.17;0.17;;;16.20;99.90;;;;;;5113617;28;20054;-89
2023/10/20 12:39:34;;;;;;;0.00;0.00;;;16.30;99.90;;;;;;5094858;28;20067;-88
2023/10/20 12:42:04;;;;;;;0.22;0.20;;;16.40;99.90;;;;;;5095848;28;20060;-88
2023/10/20 12:44:33;;;;;;;0.10;0.10;;;16.40;1.00;;;;;;5115246;28;20109;-86
2023/10/20 12:47:01;;;;;;;0.30;0.22;;;16.40;99.90;;;;;;5113818;28;20055;-87
2023/10/20 12:49:31;;;;;;;0.10;0.10;;;16.40;63.10;;;;;;5093913;28;20044;-89
2023/10/20 12:51:58;;;;;;;0.10;0.10;;;16.40;1.00;;;;;;5094461;28;20501;-89
2023/10/20 12:54:26;;;;;;;0.20;0.20;;;16.40;99.90;;;;;;5092968;28;20154;-88
2023/10/20 12:56:53;;;;;;;0.20;0.20;;;16.40;1.00;;;;;;5110064;28;20051;-88
2023/10/20 12:59:20;;;;;;;0.68;0.20;;;16.40;1.00;;;;;;5110780;28;20059;-90
2023/10/20 13:01:47;;;;;;;0.10;0.10;;;16.40;1.00;;;;;;5110911;28;20135;-88
2023/10/20 13:04:14;;;;;;;0.20;0.20;;;16.40;99.90;;;;;;5110594;28;20567;-90
2023/10/20 13:06:41;;;;;;;0.20;0.20;;;16.50;1.00;;;;;;5094028;28;20051;-89
2023/10/20 13:09:25;;;;;;;0.10;0.10;;;16.60;99.90;;;;;;5110661;28;20051;-87
2023/10/20 13:11:52;;;;;;;0.10;0.10;;;16.70;99.90;;;;;;5110586;28;20047;-87
2023/10/20 13:14:19;;;;;;;0.10;0.10;;;16.70;1.00;;;;;;5105391;28;20061;-89
2023/10/20 13:16:46;;;;;;;0.20;0.20;;;16.80;11.10;;;;;;5100967;28;20109;-85
2023/10/20 13:19:13;;;;;;;0.10;0.10;;;17.00;1.00;;;;;;5092098;28;20059;-89
2023/10/20 13:21:41;;;;;;;0.20;0.20;;;17.00;99.90;;;;;;5090688;28;20059;-89
2023/10/20 13:24:08;;;;;;;0.10;0.10;;;17.10;99.90;;;;;;5104356;28;20043;-88
2023/10/20 13:26:35;;;;;;;0.17;0.10;;;17.10;99.90;;;;;;5110835;28;20515;-88
2023/10/20 13:29:05;;;;;;;0.10;0.10;;;17.30;99.90;;;;;;5092450;28;20047;-90
2023/10/20 13:31:33;;;;;;;0.20;0.20;;;17.60;99.90;;;;;;5090878;28;20120;-87
2023/10/20 13:34:02;;;;;;;0.10;0.10;;;17.90;99.90;;;;;;5090991;28;20403;-89
2023/10/20 13:36:30;;;;;;;0.10;0.10;;;18.10;99.90;;;;;;5111355;28;20052;-88
2023/10/20 13:38:56;;;;;;;0.13;0.13;;;18.30;91.60;;;;;;5092454;28;20043;-89
2023/10/20 13:41:23;;;;;;;0.10;0.10;;;18.70;84.90;;;;;;5108530;28;20083;-89
2023/10/20 13:43:51;;;;;;;0.20;0.20;;;19.00;37.10;;;;;;5107564;28;20150;-86